Time;durP1;ratioP1;P1;durP2;ratioP2;P2;SDS_P1;SDS_P2;PMS_P1;PMS_P2;Temp;Humidity;BMP_temperature;BMP_pressure;BME280_temperature;BME280_humidity;BME280_pressure;Samples;Min_cycle;Max_cycle;Signal;HPM_P1;HPM_P2
2022/11/29 00:01:00;;;;;;;42.55;18.45;;;;;;;7.13;100.00;101170.31;4981757;28;20576;-77
2022/11/29 00:03:27;;;;;;;38.88;17.48;;;;;;;7.13;100.00;101178.03;4968426;28;20527;-77
2022/11/29 00:05:53;;;;;;;33.25;16.83;;;;;;;7.12;100.00;101178.16;4983779;28;20118;-77
2022/11/29 00:08:19;;;;;;;41.63;18.38;;;;;;;7.16;100.00;101174.41;5000610;28;20685;-77
2022/11/29 00:10:45;;;;;;;37.35;18.60;;;;;;;7.17;100.00;101171.69;4982627;28;20039;-78
2022/11/29 00:13:10;;;;;;;44.70;18.27;;;;;;;7.22;100.00;101166.97;4984864;28;20614;-77
2022/11/29 00:15:38;;;;;;;37.80;18.73;;;;;;;7.20;100.00;101163.72;5000507;28;20039;-77
2022/11/29 00:18:04;;;;;;;44.13;19.73;;;;;;;7.18;100.00;101169.94;4984860;28;20038;-77
2022/11/29 00:20:30;;;;;;;39.83;19.08;;;;;;;7.12;100.00;101171.25;4976862;28;20081;-77
2022/11/29 00:22:56;;;;;;;42.38;19.75;;;;;;;7.12;100.00;101166.09;4981399;28;20050;-77
2022/11/29 00:25:22;;;;;;;46.80;19.42;;;;;;;7.15;100.00;101171.00;4983422;28;20041;-77
2022/11/29 00:27:47;;;;;;;36.58;18.83;;;;;;;7.24;100.00;101171.19;4986766;28;20133;-77
2022/11/29 00:30:13;;;;;;;40.60;19.10;;;;;;;7.18;100.00;101165.59;4981028;28;20030;-77
2022/11/29 00:32:38;;;;;;;46.53;20.25;;;;;;;7.16;100.00;101166.66;4969187;28;20619;-77
2022/11/29 00:35:04;;;;;;;37.13;18.80;;;;;;;7.15;100.00;101171.00;4982254;28;20030;-77
2022/11/29 00:37:30;;;;;;;39.05;19.67;;;;;;;7.17;100.00;101179.41;4979723;28;20070;-76
2022/11/29 00:39:55;;;;;;;43.53;20.05;;;;;;;7.18;100.00;101169.94;4966141;28;20043;-77
2022/11/29 00:42:21;;;;;;;49.13;20.58;;;;;;;7.20;100.00;101170.63;4998583;28;20042;-77
2022/11/29 00:44:46;;;;;;;47.85;20.40;;;;;;;7.17;100.00;101168.28;4979545;28;20034;-77
2022/11/29 00:47:12;;;;;;;46.03;19.45;;;;;;;7.16;100.00;101171.84;4980505;28;20127;-77
2022/11/29 00:49:37;;;;;;;49.20;20.23;;;;;;;7.16;100.00;101174.41;4982125;28;20396;-77
2022/11/29 00:52:03;;;;;;;46.53;21.42;;;;;;;7.19;100.00;101168.97;4963535;28;20058;-77
2022/11/29 00:54:28;;;;;;;41.20;20.70;;;;;;;7.13;100.00;101172.88;4982355;28;20038;-78
2022/11/29 00:56:54;;;;;;;49.88;21.42;;;;;;;7.16;100.00;101169.25;4983592;28;20236;-77
2022/11/29 00:59:19;;;;;;;48.38;21.52;;;;;;;7.14;100.00;101173.69;4982001;28;20029;-77
2022/11/29 01:01:45;;;;;;;51.75;22.13;;;;;;;7.13;100.00;101175.47;4992410;28;20043;-77
2022/11/29 01:04:10;;;;;;;50.88;21.17;;;;;;;7.13;100.00;101172.88;4993956;28;20030;-77
2022/11/29 01:06:36;;;;;;;57.03;24.05;;;;;;;7.21;100.00;101178.25;4975554;28;20417;-77
2022/11/29 01:09:01;;;;;;;48.50;22.08;;;;;;;7.15;100.00;101172.75;4993021;28;20057;-78
2022/11/29 01:11:27;;;;;;;47.97;22.25;;;;;;;7.12;100.00;101166.09;4976688;28;20051;-78
2022/11/29 01:13:58;;;;;;;46.30;21.77;;;;;;;7.10;100.00;101172.31;4976842;28;20030;-77
2022/11/29 01:16:26;;;;;;;48.45;21.60;;;;;;;7.09;100.00;101174.06;4993414;28;20034;-77
2022/11/29 01:18:51;;;;;;;40.25;20.67;;;;;;;7.09;100.00;101181.00;4980735;28;20034;-78
2022/11/29 01:21:19;;;;;;;49.38;21.75;;;;;;;7.09;100.00;101186.97;4973531;28;20053;-77
2022/11/29 01:23:46;;;;;;;43.35;21.27;;;;;;;7.09;100.00;101193.91;4963003;28;20282;-77
2022/11/29 01:26:18;;;;;;;44.20;20.92;;;;;;;7.09;100.00;101196.47;4977652;28;20492;-78
2022/11/29 01:28:46;;;;;;;40.47;20.90;;;;;;;7.09;100.00;101188.75;4979609;28;20682;-78
2022/11/29 01:31:23;;;;;;;46.58;22.23;;;;;;;7.08;100.00;101190.47;4978703;28;20050;-77
2022/11/29 01:33:53;;;;;;;48.47;22.52;;;;;;;7.09;100.00;101196.47;4994554;28;20074;-77
2022/11/29 01:36:19;;;;;;;55.28;21.95;;;;;;;7.06;100.00;101194.94;4978526;28;20124;-74
2022/11/29 01:38:44;;;;;;;44.83;20.88;;;;;;;7.06;100.00;101205.25;4982432;28;20034;-78
2022/11/29 01:41:17;;;;;;;42.58;20.58;;;;;;;7.06;100.00;101207.84;4981951;28;20558;-76
2022/11/29 01:44:00;;;;;;;52.17;22.23;;;;;;;7.06;100.00;101207.03;4981614;28;20030;-77
2022/11/29 01:46:32;;;;;;;49.30;22.05;;;;;;;7.05;100.00;101203.63;4976388;28;20137;-77
2022/11/29 01:49:02;;;;;;;48.55;21.80;;;;;;;7.06;100.00;101204.44;4963906;28;20129;-77
2022/11/29 01:51:29;;;;;;;53.92;22.73;;;;;;;7.06;100.00;101207.84;4979296;28;20055;-77
2022/11/29 01:53:55;;;;;;;48.05;23.13;;;;;;;7.06;100.00;101202.69;4980517;28;20042;-77
2022/11/29 01:56:22;;;;;;;44.30;20.83;;;;;;;7.06;100.00;101205.25;4982608;28;20042;-77
2022/11/29 01:58:47;;;;;;;41.33;21.48;;;;;;;7.06;100.00;101204.44;4989660;28;20042;-77
2022/11/29 02:01:13;;;;;;;57.42;23.60;;;;;;;7.10;100.00;101208.41;4979652;28;20045;-78
2022/11/29 02:03:39;;;;;;;50.22;22.45;;;;;;;7.08;100.00;101211.09;5008749;22;20041;-77
2022/11/29 02:06:06;;;;;;;44.33;22.27;;;;;;;7.08;100.00;101213.69;4992277;28;20050;-77
2022/11/29 02:08:41;;;;;;;50.08;20.48;;;;;;;7.08;100.00;101221.41;5001565;28;20026;-77
2022/11/29 02:11:12;;;;;;;44.70;21.08;;;;;;;7.08;100.00;101216.25;5014176;28;20490;-77
2022/11/29 02:13:56;;;;;;;47.72;21.20;;;;;;;7.07;100.00;101217.22;5004872;28;20711;-76
2022/11/29 02:17:00;;;;;;;45.13;20.73;;;;;;;7.09;100.00;101212.75;4982473;28;20540;-77
2022/11/29 02:19:33;;;;;;;44.78;22.63;;;;;;;7.08;100.00;101215.44;4961985;28;20048;-77
2022/11/29 02:22:07;;;;;;;42.65;21.02;;;;;;;7.06;100.00;101220.72;4967480;28;20050;-76
2022/11/29 02:25:11;;;;;;;46.67;20.08;;;;;;;7.06;100.00;101218.16;4984299;28;20128;-76
2022/11/29 02:28:01;;;;;;;52.40;21.75;;;;;;;7.06;100.00;101220.72;4987527;28;20077;-76
2022/11/29 02:30:45;;;;;;;53.47;23.13;;;;;;;7.09;100.00;101223.06;4985628;28;20053;-76
2022/11/29 02:33:28;;;;;;;52.60;21.27;;;;;;;7.12;100.00;101225.41;4983156;28;20119;-76
2022/11/29 02:36:27;;;;;;;47.53;22.58;;;;;;;7.09;100.00;101223.06;4998944;28;20570;-76
2022/11/29 02:39:19;;;;;;;50.08;22.08;;;;;;;7.08;100.00;101226.56;4981487;28;20030;-77
2022/11/29 02:42:02;;;;;;;46.10;22.70;;;;;;;7.07;100.00;101232.69;4982653;28;20045;-77
2022/11/29 02:44:36;;;;;;;61.78;26.17;;;;;;;7.19;100.00;101230.88;5001845;28;20419;-77
2022/11/29 02:47:09;;;;;;;66.88;25.80;;;;;;;7.19;100.00;101238.63;5000624;28;20577;-77
2022/11/29 02:49:59;;;;;;;58.58;24.27;;;;;;;7.14;100.00;101230.44;4988448;28;20134;-77
2022/11/29 02:52:55;;;;;;;68.60;26.17;;;;;;;7.11;100.00;101238.44;4997084;28;20057;-76
2022/11/29 02:55:33;;;;;;;58.13;25.73;;;;;;;7.08;100.00;101233.50;4959817;28;20037;-76
2022/11/29 02:58:07;;;;;;;80.38;27.23;;;;;;;7.04;100.00;101226.97;4971143;28;20041;-76
2022/11/29 03:00:37;;;;;;;78.13;26.75;;;;;;;7.04;100.00;101232.94;5001418;28;20046;-76
2022/11/29 03:03:14;;;;;;;76.60;27.45;;;;;;;7.02;100.00;101235.63;4973096;28;20053;-76
2022/11/29 03:06:13;;;;;;;81.72;28.55;;;;;;;7.13;100.00;101233.97;4969627;28;20038;-77
2022/11/29 03:08:59;;;;;;;83.40;29.15;;;;;;;7.09;100.00;101242.91;4989471;28;20030;-76
2022/11/29 03:11:44;;;;;;;84.22;28.83;;;;;;;7.09;100.00;101246.28;4987408;28;20500;-76
2022/11/29 03:14:24;;;;;;;76.63;26.95;;;;;;;7.04;100.00;101245.81;4973384;28;20065;-76
2022/11/29 03:17:14;;;;;;;77.32;27.42;;;;;;;7.05;100.00;101247.47;4980956;28;20080;-76
2022/11/29 03:20:06;;;;;;;64.38;26.92;;;;;;;7.00;100.00;101250.41;4984882;28;20040;-76
2022/11/29 03:22:50;;;;;;;87.33;28.33;;;;;;;7.02;100.00;101251.09;4983070;28;20179;-76
2022/11/29 03:25:44;;;;;;;83.00;29.27;;;;;;;7.04;100.00;101258.72;4980835;28;20049;-76
2022/11/29 03:28:21;;;;;;;90.20;28.63;;;;;;;7.03;100.00;101262.25;4963648;28;20045;-76
2022/11/29 03:31:27;;;;;;;75.90;28.20;;;;;;;7.01;100.00;101267.53;4986250;28;20038;-76
2022/11/29 03:34:05;;;;;;;94.40;30.70;;;;;;;7.06;100.00;101269.72;4969789;28;20050;-76
2022/11/29 03:36:46;;;;;;;86.15;28.55;;;;;;;7.08;100.00;101270.41;5001449;28;20132;-77
2022/11/29 03:39:23;;;;;;;88.30;29.15;;;;;;;7.07;100.00;101271.38;4982484;28;21018;-75
2022/11/29 03:41:57;;;;;;;76.75;27.95;;;;;;;7.05;100.00;101275.84;4988507;28;20401;-77
2022/11/29 03:44:36;;;;;;;88.05;29.10;;;;;;;7.01;100.00;101274.44;5003800;28;20034;-77
2022/11/29 03:47:17;;;;;;;78.80;27.13;;;;;;;6.99;100.00;101284.88;4986167;28;20448;-76
2022/11/29 03:49:58;;;;;;;95.45;30.90;;;;;;;6.98;100.00;101283.22;4985524;28;20172;-76
2022/11/29 03:52:48;;;;;;;75.25;27.38;;;;;;;7.04;100.00;101283.69;4988658;28;20124;-76
2022/11/29 03:55:51;;;;;;;77.63;28.45;;;;;;;7.02;100.00;101288.97;5000711;28;20065;-76
2022/11/29 03:58:47;;;;;;;98.85;29.73;;;;;;;7.07;100.00;101291.19;5002660;28;20034;-77
2022/11/29 04:01:32;;;;;;;102.57;29.33;;;;;;;7.14;100.00;101290.59;4966032;28;20193;-77
2022/11/29 04:04:23;;;;;;;76.57;26.98;;;;;;;7.07;100.00;101284.28;4983208;28;20103;-76
2022/11/29 04:07:22;;;;;;;95.50;28.48;;;;;;;6.98;100.00;101285.00;5000315;28;20046;-77
2022/11/29 04:09:54;;;;;;;76.38;26.55;;;;;;;6.96;100.00;101284.28;5001390;28;20112;-76
2022/11/29 04:12:19;;;;;;;76.00;28.20;;;;;;;7.00;100.00;101283.09;4971618;28;20060;-76
2022/11/29 04:15:03;;;;;;;87.80;29.10;;;;;;;6.99;100.00;101294.38;4985464;28;20768;-77
2022/11/29 04:17:41;;;;;;;96.55;33.63;;;;;;;7.03;100.00;101300.94;5002821;28;20041;-76
2022/11/29 04:20:18;;;;;;;108.57;35.30;;;;;;;7.05;100.00;101304.22;5000518;28;20037;-76
2022/11/29 04:23:21;;;;;;;97.78;31.15;;;;;;;7.02;100.00;101304.44;4984633;28;20042;-76
2022/11/29 04:26:15;;;;;;;99.40;32.80;;;;;;;7.00;100.00;101308.91;4998647;28;20567;-76
2022/11/29 04:28:52;;;;;;;87.07;27.85;;;;;;;7.04;100.00;101312.06;4998975;28;20042;-76
2022/11/29 04:31:46;;;;;;;109.80;36.72;;;;;;;7.07;100.00;101312.63;4999267;28;20066;-77
2022/11/29 04:34:18;;;;;;;187.25;56.70;;;;;;;7.09;100.00;101310.75;4985812;28;20042;-76
2022/11/29 04:37:02;;;;;;;157.25;51.40;;;;;;;7.04;100.00;101315.44;4998954;28;20084;-77
2022/11/29 04:39:49;;;;;;;124.85;39.80;;;;;;;7.05;100.00;101311.94;4983387;28;20476;-76
2022/11/29 04:42:33;;;;;;;100.70;33.35;;;;;;;7.07;100.00;101314.41;4979960;28;20129;-77
2022/11/29 04:45:25;;;;;;;104.03;32.03;;;;;;;7.08;100.00;101322.00;5000555;28;20030;-77
2022/11/29 04:47:58;;;;;;;95.70;29.95;;;;;;;7.08;100.00;101326.34;4955992;28;20045;-76
2022/11/29 04:50:52;;;;;;;88.40;29.85;;;;;;;7.04;100.00;101330.91;5002416;28;20096;-76
2022/11/29 04:53:28;;;;;;;85.25;29.05;;;;;;;7.03;100.00;101334.47;4985842;28;20033;-76
2022/11/29 04:56:12;;;;;;;94.50;28.60;;;;;;;7.08;100.00;101334.09;4984844;28;20518;-76
2022/11/29 04:59:14;;;;;;;92.25;30.17;;;;;;;7.09;100.00;101340.91;4998212;28;20038;-76
2022/11/29 05:02:07;;;;;;;104.78;34.67;;;;;;;7.03;100.00;101334.47;4987780;28;20038;-76
2022/11/29 05:04:59;;;;;;;106.72;31.35;;;;;;;7.06;100.00;101346.28;5004718;28;20042;-77
2022/11/29 05:07:48;;;;;;;117.03;35.20;;;;;;;7.06;100.00;101343.69;4985718;28;20048;-77
2022/11/29 05:10:25;;;;;;;119.90;36.75;;;;;;;7.14;100.00;101346.50;5004122;28;20040;-76
2022/11/29 05:13:03;;;;;;;101.97;30.45;;;;;;;7.07;100.00;101348.75;5000371;28;20042;-76
2022/11/29 05:15:53;;;;;;;96.25;29.90;;;;;;;7.03;100.00;101337.03;4984031;28;20052;-76
2022/11/29 05:19:09;;;;;;;109.57;32.83;;;;;;;7.05;100.00;101352.41;4981552;28;20055;-76
2022/11/29 05:21:47;;;;;;;109.38;29.73;;;;;;;7.05;100.00;101358.38;4978694;28;20040;-76
2022/11/29 05:24:41;;;;;;;99.55;31.23;;;;;;;7.01;100.00;101364.69;4986824;28;20528;-76
2022/11/29 05:27:44;;;;;;;106.50;32.40;;;;;;;7.04;100.00;101361.88;4995194;28;20046;-76
2022/11/29 05:30:11;;;;;;;124.67;32.77;;;;;;;7.08;100.00;101367.59;4967924;28;20052;-76
2022/11/29 05:33:01;;;;;;;111.90;29.63;;;;;;;7.08;100.00;101371.00;5002261;28;20487;-76
2022/11/29 05:35:52;;;;;;;107.93;29.75;;;;;;;7.07;100.00;101369.38;4968800;28;20042;-76
2022/11/29 05:38:27;;;;;;;105.93;27.02;;;;;;;7.04;100.00;101377.34;4996466;28;20088;-76
2022/11/29 05:41:26;;;;;;;108.38;28.98;;;;;;;7.09;100.00;101372.66;4993937;28;20498;-76
2022/11/29 05:43:54;;;;;;;129.95;34.55;;;;;;;7.15;100.00;101374.75;4978188;28;20588;-77
2022/11/29 05:46:53;;;;;;;118.95;31.33;;;;;;;7.08;100.00;101378.72;4983378;28;20121;-76
2022/11/29 05:49:42;;;;;;;111.70;29.05;;;;;;;7.01;100.00;101390.50;4982427;28;20034;-76
2022/11/29 05:52:38;;;;;;;112.72;29.48;;;;;;;7.05;100.00;101391.88;4983686;28;20050;-75
2022/11/29 05:55:18;;;;;;;112.45;27.10;;;;;;;7.04;100.00;101392.00;4984944;28;20029;-76
2022/11/29 05:58:09;;;;;;;120.07;30.65;;;;;;;7.06;100.00;101397.84;4982474;28;20562;-76
2022/11/29 06:01:05;;;;;;;118.57;29.38;;;;;;;7.05;100.00;101401.38;4995683;28;20060;-76
2022/11/29 06:03:42;;;;;;;110.50;29.30;;;;;;;7.00;100.00;101399.97;4985135;28;20041;-76
2022/11/29 06:06:30;;;;;;;126.72;30.25;;;;;;;7.05;100.00;101404.78;4996764;28;20061;-76
2022/11/29 06:09:27;;;;;;;123.72;32.58;;;;;;;7.00;100.00;101409.47;5001594;28;20032;-76
2022/11/29 06:12:04;;;;;;;104.20;29.90;;;;;;;6.98;100.00;101414.72;4999513;28;20057;-76
2022/11/29 06:14:44;;;;;;;123.28;32.17;;;;;;;7.01;100.00;101421.44;4999856;28;20034;-76
2022/11/29 06:17:29;;;;;;;132.93;33.05;;;;;;;6.94;100.00;101425.41;4981663;28;20074;-76
2022/11/29 06:20:25;;;;;;;114.05;30.98;;;;;;;6.94;100.00;101426.22;4999152;28;20029;-76
2022/11/29 06:23:19;;;;;;;124.05;31.10;;;;;;;6.92;100.00;101429.88;4984848;28;20034;-76
2022/11/29 06:26:06;;;;;;;115.20;29.65;;;;;;;6.91;100.00;101428.22;4957814;28;20057;-76
2022/11/29 06:29:09;;;;;;;123.75;31.95;;;;;;;6.94;100.00;101433.16;5001258;28;20033;-76
2022/11/29 06:31:42;;;;;;;132.40;35.60;;;;;;;6.96;100.00;101439.00;4997994;28;20078;-76
2022/11/29 06:34:31;;;;;;;115.88;32.75;;;;;;;6.95;100.00;101439.94;4980712;28;20528;-77
2022/11/29 06:37:18;;;;;;;121.50;33.40;;;;;;;6.95;100.00;101429.63;4983313;28;20595;-76
2022/11/29 06:39:44;;;;;;;113.43;30.10;;;;;;;6.98;100.00;101432.78;4981044;28;20931;-76
2022/11/29 06:42:09;;;;;;;125.75;33.50;;;;;;;7.00;100.00;101428.31;4981276;28;20053;-76
2022/11/29 06:44:35;;;;;;;131.60;33.28;;;;;;;6.99;100.00;101436.19;4987051;28;20092;-76
2022/11/29 06:47:07;;;;;;;120.45;34.05;;;;;;;6.99;100.00;101438.78;4978995;28;20041;-75
2022/11/29 06:49:42;;;;;;;159.82;40.40;;;;;;;6.97;100.00;101441.47;4981551;28;20095;-76
2022/11/29 06:52:28;;;;;;;152.43;38.08;;;;;;;6.98;100.00;101448.25;4979498;28;20056;-76
2022/11/29 06:55:03;;;;;;;185.57;46.28;;;;;;;6.95;100.00;101445.94;4996109;28;20034;-76
2022/11/29 06:58:07;;;;;;;153.73;38.15;;;;;;;6.96;100.00;101447.56;4994056;28;20034;-76
2022/11/29 07:00:49;;;;;;;285.08;70.63;;;;;;;6.99;100.00;101451.69;4991483;28;20054;-76
2022/11/29 07:03:47;;;;;;;182.60;48.90;;;;;;;6.96;100.00;101450.13;4960722;28;20562;-76
2022/11/29 07:06:26;;;;;;;130.05;35.72;;;;;;;7.00;100.00;101454.13;4996849;28;20070;-76
2022/11/29 07:08:59;;;;;;;106.60;31.08;;;;;;;6.99;100.00;101451.69;5000858;28;20620;-76
2022/11/29 07:11:25;;;;;;;115.57;28.48;;;;;;;6.93;100.00;101447.81;4983139;28;20046;-76
2022/11/29 07:13:51;;;;;;;118.47;30.10;;;;;;;6.91;100.00;101459.16;4989121;28;20105;-77
2022/11/29 07:16:32;;;;;;;104.43;27.70;;;;;;;6.92;100.00;101453.06;4986678;28;20096;-76
2022/11/29 07:19:19;;;;;;;115.55;28.75;;;;;;;6.98;100.00;101455.19;4971268;28;20065;-76
2022/11/29 07:22:07;;;;;;;109.68;28.50;;;;;;;6.97;100.00;101461.28;4967010;28;20635;-76
2022/11/29 07:24:53;;;;;;;112.78;29.02;;;;;;;6.98;100.00;101462.91;4986833;28;20056;-76
2022/11/29 07:27:23;;;;;;;112.55;30.58;;;;;;;6.97;100.00;101466.44;4986814;28;20049;-76
2022/11/29 07:30:21;;;;;;;116.55;31.23;;;;;;;6.96;100.00;101478.50;5003811;28;20037;-76
2022/11/29 07:33:02;;;;;;;145.18;39.47;;;;;;;6.98;100.00;101476.63;4969088;28;20053;-76
2022/11/29 07:35:39;;;;;;;143.48;37.90;;;;;;;6.97;100.00;101482.72;5002969;28;20070;-76
2022/11/29 07:38:15;;;;;;;126.13;31.70;;;;;;;7.00;100.00;101490.22;4989528;28;21079;-76
2022/11/29 07:41:05;;;;;;;105.40;27.08;;;;;;;7.00;100.00;101489.41;4987112;28;20551;-76
2022/11/29 07:43:48;;;;;;;129.18;32.78;;;;;;;7.11;100.00;101492.00;4986880;28;20123;-76
2022/11/29 07:46:14;;;;;;;;;;;;;;;7.17;100.00;101490.69;4998441;28;20084;-77
2022/11/29 07:48:39;;;;;;;114.53;32.75;;;;;;;7.18;100.00;101495.75;4978370;28;19914;-77
2022/11/29 07:51:05;;;;;;;105.88;28.83;;;;;;;7.18;100.00;101497.53;4984274;28;20484;-77
2022/11/29 07:53:40;;;;;;;98.00;27.05;;;;;;;7.12;100.00;101497.97;4986680;28;20057;-76
2022/11/29 07:56:05;;;;;;;106.07;31.98;;;;;;;7.09;100.00;101499.03;4984749;28;20088;-76
2022/11/29 07:58:31;;;;;;;125.90;34.33;;;;;;;7.07;100.00;101493.16;4987171;28;20033;-76
2022/11/29 08:00:56;;;;;;;174.68;45.85;;;;;;;7.14;100.00;101499.50;4985504;28;20057;-76
2022/11/29 08:03:22;;;;;;;149.77;41.47;;;;;;;7.08;100.00;101497.38;5036756;22;20413;-77
2022/11/29 08:05:47;;;;;;;121.88;35.10;;;;;;;7.05;100.00;101507.94;5012545;28;20108;-78
2022/11/29 08:08:13;;;;;;;107.07;31.42;;;;;;;7.11;100.00;101501.50;4985279;28;20030;-78
2022/11/29 08:10:39;;;;;;;104.88;31.25;;;;;;;7.21;100.00;101503.28;4999583;28;20461;-78
2022/11/29 08:13:04;;;;;;;122.10;35.67;;;;;;;7.13;100.00;101504.78;5001682;28;20652;-77
2022/11/29 08:15:30;;;;;;;98.10;31.17;;;;;;;7.24;100.00;101512.53;5001733;28;20046;-78
2022/11/29 08:17:55;;;;;;;92.25;28.15;;;;;;;7.19;100.00;101507.69;5006561;23;20046;-77
2022/11/29 08:20:21;;;;;;;87.68;25.90;;;;;;;7.18;100.00;101507.84;5000652;28;20045;-77
2022/11/29 08:22:58;;;;;;;119.47;32.17;;;;;;;7.09;100.00;101506.75;4999175;28;21931;-77
2022/11/29 08:25:24;;;;;;;122.60;33.45;;;;;;;7.10;100.00;101510.16;4965394;28;20026;-77
2022/11/29 08:27:50;;;;;;;92.68;29.58;;;;;;;7.14;100.00;101514.13;4982077;28;20425;-77
2022/11/29 08:30:17;;;;;;;88.65;24.63;;;;;;;7.07;100.00;101511.22;4967588;28;20022;-76
2022/11/29 08:32:43;;;;;;;90.97;25.30;;;;;;;7.09;100.00;101511.09;4967572;28;20038;-77
2022/11/29 08:35:09;;;;;;;87.47;26.90;;;;;;;7.07;100.00;101512.97;4963470;28;20121;-77
2022/11/29 08:37:34;;;;;;;98.00;28.73;;;;;;;7.09;100.00;101516.25;4965673;28;20105;-77
2022/11/29 08:40:00;;;;;;;116.10;33.53;;;;;;;7.14;100.00;101511.56;4947886;28;20460;-77
2022/11/29 08:42:26;;;;;;;107.38;31.83;;;;;;;7.10;100.00;101518.75;4980834;28;20046;-77
2022/11/29 08:44:51;;;;;;;110.18;30.73;;;;;;;7.13;100.00;101520.25;4947174;28;20030;-76
2022/11/29 08:47:35;;;;;;;106.50;31.17;;;;;;;7.10;100.00;101523.06;4978637;28;20031;-76
2022/11/29 08:50:13;;;;;;;102.75;31.58;;;;;;;7.25;100.00;101528.81;4968540;28;20122;-77
2022/11/29 08:55:31;;;;;;;93.80;29.63;;;;;;;7.21;100.00;101530.81;4981963;28;20520;-77
2022/11/29 08:58:03;;;;;;;95.72;29.15;;;;;;;7.12;100.00;101536.66;4982479;28;20057;-77
2022/11/29 09:00:29;;;;;;;88.57;27.43;;;;;;;7.02;100.00;101539.09;4977903;28;20136;-77
2022/11/29 09:03:58;;;;;;;81.60;25.50;;;;;;;7.03;100.00;101548.50;4964397;28;20956;-77
2022/11/29 09:05:40;;;;;;;97.40;29.38;;;;;;;7.08;100.00;101541.22;4982154;28;20058;-77
2022/11/29 09:08:06;;;;;;;128.63;36.30;;;;;;;7.24;100.00;101547.81;4983687;28;20027;-77
2022/11/29 09:10:31;;;;;;;124.55;37.50;;;;;;;7.21;100.00;101543.69;4952198;28;20046;-75
2022/11/29 09:12:56;;;;;;;92.22;31.27;;;;;;;7.20;100.00;101560.13;4967684;28;20065;-77
2022/11/29 09:15:22;;;;;;;99.28;29.17;;;;;;;7.26;100.00;101551.91;4947882;28;20033;-77
2022/11/29 09:17:47;;;;;;;98.97;26.58;;;;;;;7.26;100.00;101558.84;4967394;28;20058;-77
2022/11/29 09:20:13;;;;;;;99.30;26.92;;;;;;;7.32;100.00;101546.28;4966468;28;20101;-76
2022/11/29 09:22:38;;;;;;;110.05;30.83;;;;;;;7.36;100.00;101550.28;4965604;28;20034;-76
2022/11/29 09:25:04;;;;;;;106.32;29.40;;;;;;;7.28;100.00;101555.19;4962044;28;20412;-77
2022/11/29 09:27:30;;;;;;;112.38;29.05;;;;;;;7.27;100.00;101561.31;4990032;28;20034;-77
2022/11/29 09:29:55;;;;;;;117.45;33.25;;;;;;;7.26;100.00;101559.66;4979442;28;20027;-77
2022/11/29 09:32:21;;;;;;;110.07;31.95;;;;;;;7.30;100.00;101562.81;4968389;28;20166;-76
2022/11/29 09:34:46;;;;;;;96.57;26.85;;;;;;;7.32;100.00;101566.13;4980663;28;20041;-77
2022/11/29 09:37:13;;;;;;;86.40;26.05;;;;;;;7.33;100.00;101571.16;4982428;28;20046;-77
2022/11/29 09:39:40;;;;;;;97.75;27.23;;;;;;;7.34;100.00;101565.06;4984776;28;20038;-76
2022/11/29 09:42:14;;;;;;;103.07;27.55;;;;;;;7.33;100.00;101576.31;4966165;28;20054;-77
2022/11/29 09:45:06;;;;;;;107.75;27.25;;;;;;;7.35;100.00;101579.59;4987508;28;20049;-76
2022/11/29 09:48:16;;;;;;;102.13;28.33;;;;;;;7.43;100.00;101584.19;4984252;28;20117;-77
2022/11/29 09:51:00;;;;;;;105.80;28.05;;;;;;;7.52;100.00;101590.41;4984218;28;20472;-76
2022/11/29 09:53:42;;;;;;;110.00;29.25;;;;;;;7.55;100.00;101593.59;4964087;28;20527;-76
2022/11/29 09:56:18;;;;;;;106.10;26.75;;;;;;;7.55;100.00;101595.31;4946040;28;20046;-76
2022/11/29 09:59:08;;;;;;;114.78;28.48;;;;;;;7.59;100.00;101596.72;4965591;28;20033;-76
2022/11/29 10:01:38;;;;;;;104.97;29.08;;;;;;;7.54;100.00;101602.25;4945738;28;20050;-76
2022/11/29 10:04:11;;;;;;;96.68;25.55;;;;;;;7.54;100.00;101601.44;4964444;28;20396;-77
2022/11/29 10:06:48;;;;;;;89.32;26.00;;;;;;;7.57;100.00;101604.63;4977695;28;20136;-77
2022/11/29 10:09:25;;;;;;;95.75;27.48;;;;;;;7.56;100.00;101605.53;4978075;28;20047;-77
2022/11/29 10:12:13;;;;;;;99.78;29.48;;;;;;;7.60;100.00;101606.94;4981910;28;20455;-77
2022/11/29 10:14:54;;;;;;;87.05;25.58;;;;;;;7.55;100.00;101605.66;4982002;28;20053;-77
2022/11/29 10:17:26;;;;;;;93.60;27.20;;;;;;;7.59;100.00;101596.72;4960078;28;20046;-76
2022/11/29 10:19:57;;;;;;;92.45;28.20;;;;;;;7.60;100.00;101601.78;4981097;28;20189;-76
2022/11/29 10:22:52;;;;;;;97.22;26.85;;;;;;;7.52;100.00;101605.91;4947763;28;20098;-77
2022/11/29 10:25:28;;;;;;;90.60;27.10;;;;;;;7.58;100.00;101603.66;4977916;28;20096;-76
2022/11/29 10:27:54;;;;;;;87.60;26.15;;;;;;;7.56;100.00;101600.38;4964294;28;20523;-77
2022/11/29 10:30:19;;;;;;;99.13;27.73;;;;;;;7.51;100.00;101596.50;4961663;28;20030;-75
2022/11/29 10:32:49;;;;;;;91.25;27.98;;;;;;;7.57;100.00;101596.03;4963292;28;20052;-77
2022/11/29 10:35:18;;;;;;;92.00;28.58;;;;;;;7.59;100.00;101597.56;4981922;28;20138;-77
2022/11/29 10:37:44;;;;;;;92.18;25.95;;;;;;;7.65;100.00;101595.44;4965820;28;20026;-76
2022/11/29 10:40:17;;;;;;;86.68;27.25;;;;;;;7.72;100.00;101591.47;4943390;28;20029;-77
2022/11/29 10:42:51;;;;;;;85.75;26.40;;;;;;;7.73;100.00;101595.69;4962091;28;20034;-76
2022/11/29 10:45:22;;;;;;;93.18;28.95;;;;;;;7.79;100.00;101583.13;4960884;28;20034;-76
2022/11/29 10:47:49;;;;;;;99.40;28.00;;;;;;;7.80;100.00;101589.13;4956271;28;20716;-76
2022/11/29 10:50:22;;;;;;;82.57;27.00;;;;;;;7.75;100.00;101586.06;4967850;28;20038;-75
2022/11/29 10:52:48;;;;;;;87.32;27.67;;;;;;;7.75;100.00;101586.06;4990643;28;20686;-76
2022/11/29 10:55:15;;;;;;;93.97;28.08;;;;;;;7.78;100.00;101585.84;4966443;28;20035;-76
2022/11/29 10:58:18;;;;;;;96.75;28.90;;;;;;;7.71;100.00;101593.22;4968483;28;20464;-76
2022/11/29 11:00:53;;;;;;;91.68;27.50;;;;;;;7.78;100.00;101598.75;4971630;28;20072;-76
2022/11/29 11:03:36;;;;;;;85.75;29.48;;;;;;;7.82;100.00;101584.66;4970782;28;20465;-76
2022/11/29 11:06:10;;;;;;;92.22;29.65;;;;;;;7.87;100.00;101587.69;4989090;28;20049;-76
2022/11/29 11:08:37;;;;;;;91.22;28.83;;;;;;;7.96;100.00;101581.00;4987066;28;21340;-77
2022/11/29 11:11:04;;;;;;;88.63;29.92;;;;;;;7.85;100.00;101587.00;4984261;28;20059;-76
2022/11/29 11:13:31;;;;;;;87.78;29.77;;;;;;;7.87;100.00;101586.88;4986220;28;20220;-77
2022/11/29 11:16:17;;;;;;;82.45;28.08;;;;;;;7.83;100.00;101575.16;4991424;28;20483;-77
2022/11/29 11:18:44;;;;;;;97.80;30.75;;;;;;;7.70;100.00;101583.00;4953691;28;20074;-76
2022/11/29 11:21:12;;;;;;;88.68;29.02;;;;;;;7.65;100.00;101575.63;4969213;28;20043;-76
2022/11/29 11:24:01;;;;;;;100.40;29.05;;;;;;;7.71;100.00;101576.91;4953962;28;20034;-76
2022/11/29 11:26:40;;;;;;;88.53;28.85;;;;;;;7.82;100.00;101587.25;4983032;28;20489;-76
2022/11/29 11:29:17;;;;;;;104.45;31.40;;;;;;;7.82;100.00;101579.50;4953097;28;20092;-76
2022/11/29 11:31:49;;;;;;;94.53;30.83;;;;;;;7.80;100.00;101582.19;4986023;28;20969;-76
2022/11/29 11:34:36;;;;;;;96.97;29.65;;;;;;;7.85;100.00;101591.34;4984809;28;20030;-76
2022/11/29 11:37:20;;;;;;;86.25;30.33;;;;;;;7.86;100.00;101588.66;4980194;28;20097;-76
2022/11/29 11:39:46;;;;;;;;;;;;;;;7.89;100.00;101582.41;4974558;28;20069;-77
2022/11/29 11:42:35;;;;;;;103.97;29.88;;;;;;;7.92;100.00;101590.75;4983500;28;19953;-77
2022/11/29 11:45:03;;;;;;;99.47;30.17;;;;;;;7.88;100.00;101585.94;4962507;28;20043;-76
2022/11/29 11:47:34;;;;;;;90.05;28.13;;;;;;;7.88;100.00;101583.38;4966744;28;20100;-77
2022/11/29 11:50:02;;;;;;;103.10;30.48;;;;;;;7.96;100.00;101593.91;4950806;28;20539;-76
2022/11/29 11:52:32;;;;;;;98.20;31.08;;;;;;;8.15;100.00;101591.53;4984390;28;20138;-77